Creighton, Missouri
Current Conditions -  °F | °C
As of 10:35 AM on Saturday 22 Nov 2014 (Local Time) from KGLY Reporting Station
Overcast Overcast  
Wind Chill: 57°   Ceiling: 1700
Heat Index: 57°   Visibility: 10mi
Dew Point: 52°   Wind: 13mph
Humidity: 82%   Direction: 190°S
Pressure: 30.01"   Gusts: NA
Location:  38.49°N, 94.07°W
Report Text: KGLY 221635Z AUTO 19011KT 10SM OVC017 14/11 A3001 RMK AO2
Loading
Personal Weather Stations






























Interactive Weather Map New forecast layout! Learn more

10-Day Weather Forecast

Advertisements
Track Severe Weather on mobile